Sjorring, Denmark
Current Conditions -  °F | °C
As of 3:20 AM on Tuesday 23 Dec 2014 (Local Time) from EKYT Reporting Station
Broken Clouds Broken Clouds  
Wind Chill: 36°   Ceiling: 23000
Heat Index: 43°   Visibility: 6mi
Dew Point: 39°   Wind: 14mph
Humidity: 87%   Direction: 250°WSW
Pressure: 29.47"   Gusts: NA
Location:  56.95°N, 8.6°E
Report Text: EKYT 230220Z 25012KT 9999 FEW023 BKN230 06/04 Q0998
Loading
Personal Weather Stations






























Interactive Weather Map New forecast layout! Learn more

10-Day Weather Forecast

Advertisements
Track Severe Weather on mobile